sensor_id;sensor_type;location;lat;lon;timestamp;temperature;humidity
9329;DHT22;4703;48.748;19.142;2023-12-20T00:02:17;-0.40;99.90
9329;DHT22;4703;48.748;19.142;2023-12-20T00:04:44;-0.10;99.90
9329;DHT22;4703;48.748;19.142;2023-12-20T00:07:11;-0.30;99.90
9329;DHT22;4703;48.748;19.142;2023-12-20T00:09:39;-0.40;99.90
9329;DHT22;4703;48.748;19.142;2023-12-20T00:12:06;-0.30;99.90
9329;DHT22;4703;48.748;19.142;2023-12-20T00:14:33;-0.30;99.90
9329;DHT22;4703;48.748;19.142;2023-12-20T00:17:00;-0.40;99.90
9329;DHT22;4703;48.748;19.142;2023-12-20T00:19:27;-0.30;99.90
9329;DHT22;4703;48.748;19.142;2023-12-20T00:21:54;-0.30;99.90
9329;DHT22;4703;48.748;19.142;2023-12-20T00:24:22;-0.40;99.90
9329;DHT22;4703;48.748;19.142;2023-12-20T00:26:49;-0.40;99.90
9329;DHT22;4703;48.748;19.142;2023-12-20T00:29:16;-0.40;99.90
9329;DHT22;4703;48.748;19.142;2023-12-20T00:31:43;-0.40;99.90
9329;DHT22;4703;48.748;19.142;2023-12-20T00:34:10;-0.40;99.90
9329;DHT22;4703;48.748;19.142;2023-12-20T00:36:37;-0.40;99.90
9329;DHT22;4703;48.748;19.142;2023-12-20T00:39:04;0.80;99.90
9329;DHT22;4703;48.748;19.142;2023-12-20T00:41:33;-0.40;99.90
9329;DHT22;4703;48.748;19.142;2023-12-20T00:44:00;0.20;99.90
9329;DHT22;4703;48.748;19.142;2023-12-20T00:46:27;-0.40;99.90
9329;DHT22;4703;48.748;19.142;2023-12-20T00:48:54;-0.40;99.90
9329;DHT22;4703;48.748;19.142;2023-12-20T00:51:21;-0.40;99.90
9329;DHT22;4703;48.748;19.142;2023-12-20T00:53:50;-0.40;99.90
9329;DHT22;4703;48.748;19.142;2023-12-20T00:56:21;-0.40;99.90
9329;DHT22;4703;48.748;19.142;2023-12-20T00:58:49;-0.40;99.90
9329;DHT22;4703;48.748;19.142;2023-12-20T01:01:16;-0.40;99.90
9329;DHT22;4703;48.748;19.142;2023-12-20T01:03:43;-0.40;99.90
9329;DHT22;4703;48.748;19.142;2023-12-20T01:06:11;-0.50;99.90
9329;DHT22;4703;48.748;19.142;2023-12-20T01:08:38;-0.40;99.90
9329;DHT22;4703;48.748;19.142;2023-12-20T01:11:05;-0.40;99.90
9329;DHT22;4703;48.748;19.142;2023-12-20T01:13:32;-0.50;99.90
9329;DHT22;4703;48.748;19.142;2023-12-20T01:15:59;-0.50;99.90
9329;DHT22;4703;48.748;19.142;2023-12-20T01:18:27;-0.50;99.90
9329;DHT22;4703;48.748;19.142;2023-12-20T01:20:54;-0.40;99.90
9329;DHT22;4703;48.748;19.142;2023-12-20T01:23:21;-0.50;99.90
9329;DHT22;4703;48.748;19.142;2023-12-20T01:25:48;-0.50;99.90
9329;DHT22;4703;48.748;19.142;2023-12-20T01:28:15;-0.50;99.90
9329;DHT22;4703;48.748;19.142;2023-12-20T01:30:42;-0.60;99.90
9329;DHT22;4703;48.748;19.142;2023-12-20T01:33:10;-0.50;99.90
9329;DHT22;4703;48.748;19.142;2023-12-20T01:35:37;1.70;99.90
9329;DHT22;4703;48.748;19.142;2023-12-20T01:38:04;-0.60;99.90
9329;DHT22;4703;48.748;19.142;2023-12-20T01:40:31;-0.60;99.90
9329;DHT22;4703;48.748;19.142;2023-12-20T01:43:16;-3.90;99.90
9329;DHT22;4703;48.748;19.142;2023-12-20T01:45:43;-0.60;99.90
9329;DHT22;4703;48.748;19.142;2023-12-20T01:48:11;-0.60;99.90
9329;DHT22;4703;48.748;19.142;2023-12-20T01:50:38;-0.50;99.90
9329;DHT22;4703;48.748;19.142;2023-12-20T01:53:07;-0.60;99.90
9329;DHT22;4703;48.748;19.142;2023-12-20T01:55:39;-0.60;99.90
9329;DHT22;4703;48.748;19.142;2023-12-20T01:58:08;-0.60;99.90
9329;DHT22;4703;48.748;19.142;2023-12-20T02:00:36;-0.60;99.90
9329;DHT22;4703;48.748;19.142;2023-12-20T02:03:04;-0.60;99.90
9329;DHT22;4703;48.748;19.142;2023-12-20T02:05:33;-0.60;99.90
9329;DHT22;4703;48.748;19.142;2023-12-20T02:08:02;-0.60;99.90
9329;DHT22;4703;48.748;19.142;2023-12-20T02:10:30;-0.60;99.90
9329;DHT22;4703;48.748;19.142;2023-12-20T02:12:57;-0.60;99.90
9329;DHT22;4703;48.748;19.142;2023-12-20T02:15:24;-0.70;99.90
9329;DHT22;4703;48.748;19.142;2023-12-20T02:17:51;-0.70;99.90
9329;DHT22;4703;48.748;19.142;2023-12-20T02:20:18;-0.70;99.90
9329;DHT22;4703;48.748;19.142;2023-12-20T02:22:45;1.70;99.90
9329;DHT22;4703;48.748;19.142;2023-12-20T02:25:12;-0.70;99.90
9329;DHT22;4703;48.748;19.142;2023-12-20T02:27:39;-0.70;99.90
9329;DHT22;4703;48.748;19.142;2023-12-20T02:30:07;-0.70;99.90
9329;DHT22;4703;48.748;19.142;2023-12-20T02:32:34;-0.70;99.90
9329;DHT22;4703;48.748;19.142;2023-12-20T02:35:01;-0.70;99.90
9329;DHT22;4703;48.748;19.142;2023-12-20T02:37:28;-0.70;99.90
9329;DHT22;4703;48.748;19.142;2023-12-20T02:39:55;-0.80;99.90
9329;DHT22;4703;48.748;19.142;2023-12-20T02:42:22;-0.90;99.90
9329;DHT22;4703;48.748;19.142;2023-12-20T02:44:49;-0.80;99.90
9329;DHT22;4703;48.748;19.142;2023-12-20T02:47:16;-0.80;99.90
9329;DHT22;4703;48.748;19.142;2023-12-20T02:49:43;-0.80;99.90
9329;DHT22;4703;48.748;19.142;2023-12-20T02:52:10;-0.90;99.90
9329;DHT22;4703;48.748;19.142;2023-12-20T02:54:37;-0.80;99.90
9329;DHT22;4703;48.748;19.142;2023-12-20T02:57:05;-0.80;99.90
9329;DHT22;4703;48.748;19.142;2023-12-20T02:59:32;-3.30;99.90
9329;DHT22;4703;48.748;19.142;2023-12-20T03:01:59;-0.80;99.90
9329;DHT22;4703;48.748;19.142;2023-12-20T03:04:26;-0.90;99.90
9329;DHT22;4703;48.748;19.142;2023-12-20T03:06:53;-0.90;99.90
9329;DHT22;4703;48.748;19.142;2023-12-20T03:09:20;-0.90;99.90
9329;DHT22;4703;48.748;19.142;2023-12-20T03:11:47;-0.90;99.90
9329;DHT22;4703;48.748;19.142;2023-12-20T03:14:14;0.80;99.90
9329;DHT22;4703;48.748;19.142;2023-12-20T03:16:41;-0.90;99.90
9329;DHT22;4703;48.748;19.142;2023-12-20T03:19:08;-0.80;99.90
9329;DHT22;4703;48.748;19.142;2023-12-20T03:21:35;-0.90;99.90
9329;DHT22;4703;48.748;19.142;2023-12-20T03:24:02;-1.00;99.90
9329;DHT22;4703;48.748;19.142;2023-12-20T03:26:29;-0.80;99.90
9329;DHT22;4703;48.748;19.142;2023-12-20T03:28:56;-0.80;99.90
9329;DHT22;4703;48.748;19.142;2023-12-20T03:31:23;-0.90;99.90
9329;DHT22;4703;48.748;19.142;2023-12-20T03:33:50;-1.00;99.90
9329;DHT22;4703;48.748;19.142;2023-12-20T03:36:20;-0.90;99.90
9329;DHT22;4703;48.748;19.142;2023-12-20T03:38:47;-0.90;99.90
9329;DHT22;4703;48.748;19.142;2023-12-20T03:41:14;-1.00;99.90
9329;DHT22;4703;48.748;19.142;2023-12-20T03:43:41;1.20;99.90
9329;DHT22;4703;48.748;19.142;2023-12-20T03:46:09;-0.90;99.90
9329;DHT22;4703;48.748;19.142;2023-12-20T03:48:36;-0.90;99.90
9329;DHT22;4703;48.748;19.142;2023-12-20T03:51:03;-1.00;99.90
9329;DHT22;4703;48.748;19.142;2023-12-20T03:53:30;0.20;99.90
9329;DHT22;4703;48.748;19.142;2023-12-20T03:55:57;-1.00;99.90
9329;DHT22;4703;48.748;19.142;2023-12-20T03:58:24;-1.00;99.90
9329;DHT22;4703;48.748;19.142;2023-12-20T04:00:51;-1.00;99.90
9329;DHT22;4703;48.748;19.142;2023-12-20T04:03:18;-1.00;99.90
9329;DHT22;4703;48.748;19.142;2023-12-20T04:05:45;-1.10;99.90
9329;DHT22;4703;48.748;19.142;2023-12-20T04:08:12;-1.00;99.90
9329;DHT22;4703;48.748;19.142;2023-12-20T04:10:39;-1.10;99.90
9329;DHT22;4703;48.748;19.142;2023-12-20T04:13:06;-1.10;99.90
9329;DHT22;4703;48.748;19.142;2023-12-20T04:15:33;-1.10;99.90
9329;DHT22;4703;48.748;19.142;2023-12-20T04:18:01;-1.10;99.90
9329;DHT22;4703;48.748;19.142;2023-12-20T04:20:28;-1.10;99.90
9329;DHT22;4703;48.748;19.142;2023-12-20T04:22:55;-1.10;99.90
9329;DHT22;4703;48.748;19.142;2023-12-20T04:25:22;-1.20;99.90
9329;DHT22;4703;48.748;19.142;2023-12-20T04:27:49;-1.10;99.90
9329;DHT22;4703;48.748;19.142;2023-12-20T04:30:16;-1.20;99.90
9329;DHT22;4703;48.748;19.142;2023-12-20T04:32:43;-1.20;99.90
9329;DHT22;4703;48.748;19.142;2023-12-20T04:35:10;-1.20;99.90
9329;DHT22;4703;48.748;19.142;2023-12-20T04:37:37;-1.20;99.90
9329;DHT22;4703;48.748;19.142;2023-12-20T04:40:04;-1.20;99.90
9329;DHT22;4703;48.748;19.142;2023-12-20T04:42:32;-1.20;99.90
9329;DHT22;4703;48.748;19.142;2023-12-20T04:44:59;-1.20;99.90
9329;DHT22;4703;48.748;19.142;2023-12-20T04:47:26;-1.20;99.90
9329;DHT22;4703;48.748;19.142;2023-12-20T04:49:53;-1.20;99.90
9329;DHT22;4703;48.748;19.142;2023-12-20T04:52:20;-1.20;99.90
9329;DHT22;4703;48.748;19.142;2023-12-20T04:54:48;-1.20;99.90
9329;DHT22;4703;48.748;19.142;2023-12-20T04:57:15;-1.30;99.90
9329;DHT22;4703;48.748;19.142;2023-12-20T04:59:42;-1.30;99.90
9329;DHT22;4703;48.748;19.142;2023-12-20T05:02:09;-1.20;99.90
9329;DHT22;4703;48.748;19.142;2023-12-20T05:04:36;-1.40;99.90
9329;DHT22;4703;48.748;19.142;2023-12-20T05:07:03;-1.30;99.90
9329;DHT22;4703;48.748;19.142;2023-12-20T05:09:32;-1.30;99.90
9329;DHT22;4703;48.748;19.142;2023-12-20T05:11:59;-1.40;99.90
9329;DHT22;4703;48.748;19.142;2023-12-20T05:14:27;-1.20;99.90
9329;DHT22;4703;48.748;19.142;2023-12-20T05:16:54;-1.30;99.90
9329;DHT22;4703;48.748;19.142;2023-12-20T05:19:21;-1.40;99.90
9329;DHT22;4703;48.748;19.142;2023-12-20T05:21:48;-1.30;99.90
9329;DHT22;4703;48.748;19.142;2023-12-20T05:24:16;-1.30;99.90
9329;DHT22;4703;48.748;19.142;2023-12-20T05:26:43;-1.30;99.90
9329;DHT22;4703;48.748;19.142;2023-12-20T05:29:10;-1.30;99.90
9329;DHT22;4703;48.748;19.142;2023-12-20T05:31:37;-1.30;99.90
9329;DHT22;4703;48.748;19.142;2023-12-20T05:34:04;-1.20;99.90
9329;DHT22;4703;48.748;19.142;2023-12-20T05:36:31;-1.30;99.90
9329;DHT22;4703;48.748;19.142;2023-12-20T05:38:58;-1.30;99.90
9329;DHT22;4703;48.748;19.142;2023-12-20T05:41:25;-1.40;99.90
9329;DHT22;4703;48.748;19.142;2023-12-20T05:43:52;-1.30;99.90
9329;DHT22;4703;48.748;19.142;2023-12-20T05:46:19;-1.30;99.90
9329;DHT22;4703;48.748;19.142;2023-12-20T05:48:47;-1.40;99.90
9329;DHT22;4703;48.748;19.142;2023-12-20T05:51:15;-1.30;99.90
9329;DHT22;4703;48.748;19.142;2023-12-20T05:53:42;-1.30;99.90
9329;DHT22;4703;48.748;19.142;2023-12-20T05:56:11;-1.30;99.90
9329;DHT22;4703;48.748;19.142;2023-12-20T05:58:39;-1.30;99.90
9329;DHT22;4703;48.748;19.142;2023-12-20T06:01:06;-1.40;99.90
9329;DHT22;4703;48.748;19.142;2023-12-20T06:03:35;-1.40;99.90
9329;DHT22;4703;48.748;19.142;2023-12-20T06:06:08;-1.30;99.90
9329;DHT22;4703;48.748;19.142;2023-12-20T06:08:42;-1.30;99.90
9329;DHT22;4703;48.748;19.142;2023-12-20T06:11:10;-1.40;99.90
9329;DHT22;4703;48.748;19.142;2023-12-20T06:13:37;-1.30;99.90
9329;DHT22;4703;48.748;19.142;2023-12-20T06:16:05;-1.40;99.90
9329;DHT22;4703;48.748;19.142;2023-12-20T06:18:34;-1.40;99.90
9329;DHT22;4703;48.748;19.142;2023-12-20T06:21:01;0.10;99.90
9329;DHT22;4703;48.748;19.142;2023-12-20T06:23:29;-1.40;99.90
9329;DHT22;4703;48.748;19.142;2023-12-20T06:25:55;-1.50;99.90
9329;DHT22;4703;48.748;19.142;2023-12-20T06:28:22;-1.40;99.90
9329;DHT22;4703;48.748;19.142;2023-12-20T06:30:50;0.80;99.90
9329;DHT22;4703;48.748;19.142;2023-12-20T06:33:19;-1.40;99.90
9329;DHT22;4703;48.748;19.142;2023-12-20T06:35:48;-1.40;99.90
9329;DHT22;4703;48.748;19.142;2023-12-20T06:38:17;-1.40;99.90
9329;DHT22;4703;48.748;19.142;2023-12-20T06:40:44;-1.40;99.90
9329;DHT22;4703;48.748;19.142;2023-12-20T06:43:13;-1.40;99.90
9329;DHT22;4703;48.748;19.142;2023-12-20T06:45:58;-1.30;99.90
9329;DHT22;4703;48.748;19.142;2023-12-20T06:48:25;-1.30;99.90
9329;DHT22;4703;48.748;19.142;2023-12-20T06:50:52;-1.40;99.90
9329;DHT22;4703;48.748;19.142;2023-12-20T06:53:19;-1.40;99.90
9329;DHT22;4703;48.748;19.142;2023-12-20T06:55:47;-1.40;99.90
9329;DHT22;4703;48.748;19.142;2023-12-20T06:58:13;-1.50;99.90
9329;DHT22;4703;48.748;19.142;2023-12-20T07:00:40;-1.40;99.90
9329;DHT22;4703;48.748;19.142;2023-12-20T07:03:09;-1.50;99.90
9329;DHT22;4703;48.748;19.142;2023-12-20T07:05:36;-1.40;99.90
9329;DHT22;4703;48.748;19.142;2023-12-20T07:08:03;-1.40;99.90
9329;DHT22;4703;48.748;19.142;2023-12-20T07:10:31;-1.40;99.90
9329;DHT22;4703;48.748;19.142;2023-12-20T07:12:58;-1.40;99.90
9329;DHT22;4703;48.748;19.142;2023-12-20T07:15:25;-1.30;99.90
9329;DHT22;4703;48.748;19.142;2023-12-20T07:17:53;-1.20;99.90
9329;DHT22;4703;48.748;19.142;2023-12-20T07:20:20;-1.10;99.90
9329;DHT22;4703;48.748;19.142;2023-12-20T07:22:47;-1.10;99.90
9329;DHT22;4703;48.748;19.142;2023-12-20T07:25:14;-1.20;99.90
9329;DHT22;4703;48.748;19.142;2023-12-20T07:27:41;-1.10;99.90
9329;DHT22;4703;48.748;19.142;2023-12-20T07:30:11;-1.10;99.90
9329;DHT22;4703;48.748;19.142;2023-12-20T07:32:38;-1.00;99.90
9329;DHT22;4703;48.748;19.142;2023-12-20T07:35:06;-1.00;99.90
9329;DHT22;4703;48.748;19.142;2023-12-20T07:37:33;-0.90;99.90
9329;DHT22;4703;48.748;19.142;2023-12-20T07:40:01;-0.90;99.90
9329;DHT22;4703;48.748;19.142;2023-12-20T07:42:28;-0.90;99.90
9329;DHT22;4703;48.748;19.142;2023-12-20T07:44:55;-0.80;99.90
9329;DHT22;4703;48.748;19.142;2023-12-20T07:47:22;-0.80;99.90
9329;DHT22;4703;48.748;19.142;2023-12-20T07:49:49;-0.70;99.90
9329;DHT22;4703;48.748;19.142;2023-12-20T07:52:18;-0.70;99.90
9329;DHT22;4703;48.748;19.142;2023-12-20T07:54:46;-0.60;99.90
9329;DHT22;4703;48.748;19.142;2023-12-20T07:57:13;-0.50;99.90
9329;DHT22;4703;48.748;19.142;2023-12-20T07:59:40;-0.60;99.90
9329;DHT22;4703;48.748;19.142;2023-12-20T08:02:07;-0.50;99.90
9329;DHT22;4703;48.748;19.142;2023-12-20T08:04:34;-0.50;99.90
9329;DHT22;4703;48.748;19.142;2023-12-20T08:07:02;-0.50;99.90
9329;DHT22;4703;48.748;19.142;2023-12-20T08:09:30;-0.50;99.90
9329;DHT22;4703;48.748;19.142;2023-12-20T08:11:58;-0.40;99.90
9329;DHT22;4703;48.748;19.142;2023-12-20T08:14:26;-0.50;99.90
9329;DHT22;4703;48.748;19.142;2023-12-20T08:16:53;-0.40;99.90
9329;DHT22;4703;48.748;19.142;2023-12-20T08:19:20;-0.30;99.90
9329;DHT22;4703;48.748;19.142;2023-12-20T08:21:47;-0.30;99.90
9329;DHT22;4703;48.748;19.142;2023-12-20T08:24:14;-0.30;99.90
9329;DHT22;4703;48.748;19.142;2023-12-20T08:26:41;2.30;99.90
9329;DHT22;4703;48.748;19.142;2023-12-20T08:29:08;1.50;99.90
9329;DHT22;4703;48.748;19.142;2023-12-20T08:31:35;-0.20;99.90
9329;DHT22;4703;48.748;19.142;2023-12-20T08:34:02;-0.10;99.90
9329;DHT22;4703;48.748;19.142;2023-12-20T08:36:31;-0.10;99.90
9329;DHT22;4703;48.748;19.142;2023-12-20T08:38:58;0.00;99.90
9329;DHT22;4703;48.748;19.142;2023-12-20T08:41:27;-0.10;99.90
9329;DHT22;4703;48.748;19.142;2023-12-20T08:43:54;0.00;99.90
9329;DHT22;4703;48.748;19.142;2023-12-20T08:46:21;0.10;99.90
9329;DHT22;4703;48.748;19.142;2023-12-20T08:48:48;0.10;99.90
9329;DHT22;4703;48.748;19.142;2023-12-20T08:51:15;0.20;99.90
9329;DHT22;4703;48.748;19.142;2023-12-20T08:53:42;0.30;99.90
9329;DHT22;4703;48.748;19.142;2023-12-20T08:56:11;0.30;99.90
9329;DHT22;4703;48.748;19.142;2023-12-20T08:58:38;0.40;99.90
9329;DHT22;4703;48.748;19.142;2023-12-20T09:01:05;0.60;99.90
9329;DHT22;4703;48.748;19.142;2023-12-20T09:03:32;0.70;99.90
9329;DHT22;4703;48.748;19.142;2023-12-20T09:06:00;0.70;99.90
9329;DHT22;4703;48.748;19.142;2023-12-20T09:08:27;0.70;99.90
9329;DHT22;4703;48.748;19.142;2023-12-20T09:10:54;0.60;99.90
9329;DHT22;4703;48.748;19.142;2023-12-20T09:13:21;0.60;99.90
9329;DHT22;4703;48.748;19.142;2023-12-20T09:15:56;0.60;99.90
9329;DHT22;4703;48.748;19.142;2023-12-20T09:18:23;0.50;99.90
9329;DHT22;4703;48.748;19.142;2023-12-20T09:20:51;0.50;99.90
9329;DHT22;4703;48.748;19.142;2023-12-20T09:23:18;0.50;99.90
9329;DHT22;4703;48.748;19.142;2023-12-20T09:25:45;0.50;99.90
9329;DHT22;4703;48.748;19.142;2023-12-20T09:28:13;3.50;99.90
9329;DHT22;4703;48.748;19.142;2023-12-20T09:30:40;0.60;99.90
9329;DHT22;4703;48.748;19.142;2023-12-20T09:33:08;0.60;99.90
9329;DHT22;4703;48.748;19.142;2023-12-20T09:35:35;0.50;99.90
9329;DHT22;4703;48.748;19.142;2023-12-20T09:38:03;0.40;99.90
9329;DHT22;4703;48.748;19.142;2023-12-20T09:40:32;0.40;99.90
9329;DHT22;4703;48.748;19.142;2023-12-20T09:43:11;0.40;99.90
9329;DHT22;4703;48.748;19.142;2023-12-20T09:45:41;0.40;99.90
9329;DHT22;4703;48.748;19.142;2023-12-20T09:48:11;0.40;99.90
9329;DHT22;4703;48.748;19.142;2023-12-20T09:50:38;0.30;99.90
9329;DHT22;4703;48.748;19.142;2023-12-20T09:53:08;0.30;99.90
9329;DHT22;4703;48.748;19.142;2023-12-20T09:55:36;2.40;99.90
9329;DHT22;4703;48.748;19.142;2023-12-20T09:58:04;0.30;99.90
9329;DHT22;4703;48.748;19.142;2023-12-20T10:00:33;0.30;99.90
9329;DHT22;4703;48.748;19.142;2023-12-20T10:03:00;0.30;99.90
9329;DHT22;4703;48.748;19.142;2023-12-20T10:05:30;0.30;99.90
9329;DHT22;4703;48.748;19.142;2023-12-20T10:07:58;0.30;99.90
9329;DHT22;4703;48.748;19.142;2023-12-20T10:10:27;0.30;99.90
9329;DHT22;4703;48.748;19.142;2023-12-20T10:13:10;0.30;99.90
9329;DHT22;4703;48.748;19.142;2023-12-20T10:15:38;0.40;99.90
9329;DHT22;4703;48.748;19.142;2023-12-20T10:18:06;0.40;99.90
9329;DHT22;4703;48.748;19.142;2023-12-20T10:20:33;0.40;99.90
9329;DHT22;4703;48.748;19.142;2023-12-20T10:23:01;0.40;99.90
9329;DHT22;4703;48.748;19.142;2023-12-20T10:25:28;0.50;99.90
9329;DHT22;4703;48.748;19.142;2023-12-20T10:28:13;0.40;99.90
9329;DHT22;4703;48.748;19.142;2023-12-20T10:30:41;0.50;99.90
9329;DHT22;4703;48.748;19.142;2023-12-20T10:33:10;0.50;99.90
9329;DHT22;4703;48.748;19.142;2023-12-20T10:35:38;0.50;99.90
9329;DHT22;4703;48.748;19.142;2023-12-20T10:38:11;0.40;99.90
9329;DHT22;4703;48.748;19.142;2023-12-20T10:40:41;1.40;99.90
9329;DHT22;4703;48.748;19.142;2023-12-20T10:43:09;0.40;99.90
9329;DHT22;4703;48.748;19.142;2023-12-20T10:45:37;0.40;99.90
9329;DHT22;4703;48.748;19.142;2023-12-20T10:48:04;0.40;99.90
9329;DHT22;4703;48.748;19.142;2023-12-20T10:50:32;0.30;99.90
9329;DHT22;4703;48.748;19.142;2023-12-20T10:53:05;0.40;99.90
9329;DHT22;4703;48.748;19.142;2023-12-20T10:55:33;0.40;99.90
9329;DHT22;4703;48.748;19.142;2023-12-20T10:58:07;0.40;99.90
9329;DHT22;4703;48.748;19.142;2023-12-20T11:00:41;1.40;99.90
9329;DHT22;4703;48.748;19.142;2023-12-20T11:03:11;0.30;99.90
9329;DHT22;4703;48.748;19.142;2023-12-20T11:05:58;0.30;99.90
9329;DHT22;4703;48.748;19.142;2023-12-20T11:08:58;0.30;99.90
9329;DHT22;4703;48.748;19.142;2023-12-20T11:17:11;0.40;99.90
9329;DHT22;4703;48.748;19.142;2023-12-20T11:20:04;0.30;99.90
9329;DHT22;4703;48.748;19.142;2023-12-20T11:22:32;0.40;99.90
9329;DHT22;4703;48.748;19.142;2023-12-20T11:25:10;0.40;99.90
9329;DHT22;4703;48.748;19.142;2023-12-20T11:27:41;0.50;99.90
9329;DHT22;4703;48.748;19.142;2023-12-20T11:30:15;0.50;99.90
9329;DHT22;4703;48.748;19.142;2023-12-20T11:32:45;0.50;99.90
9329;DHT22;4703;48.748;19.142;2023-12-20T11:37:40;0.50;99.90
9329;DHT22;4703;48.748;19.142;2023-12-20T11:40:14;2.80;99.90
9329;DHT22;4703;48.748;19.142;2023-12-20T11:42:44;0.60;99.90
9329;DHT22;4703;48.748;19.142;2023-12-20T11:45:18;0.50;99.90
9329;DHT22;4703;48.748;19.142;2023-12-20T11:47:49;1.50;99.90
9329;DHT22;4703;48.748;19.142;2023-12-20T11:50:18;0.70;99.90
9329;DHT22;4703;48.748;19.142;2023-12-20T11:52:45;0.60;99.90
9329;DHT22;4703;48.748;19.142;2023-12-20T11:55:13;0.70;99.90
9329;DHT22;4703;48.748;19.142;2023-12-20T11:57:43;0.80;99.90
9329;DHT22;4703;48.748;19.142;2023-12-20T12:00:13;1.10;99.90
9329;DHT22;4703;48.748;19.142;2023-12-20T12:02:41;1.40;99.90
9329;DHT22;4703;48.748;19.142;2023-12-20T12:05:11;1.60;99.90
9329;DHT22;4703;48.748;19.142;2023-12-20T12:07:39;1.70;99.90
9329;DHT22;4703;48.748;19.142;2023-12-20T12:10:06;1.90;99.90
9329;DHT22;4703;48.748;19.142;2023-12-20T12:12:34;2.10;99.90
9329;DHT22;4703;48.748;19.142;2023-12-20T12:15:02;2.30;99.90
9329;DHT22;4703;48.748;19.142;2023-12-20T12:17:30;2.40;99.90
9329;DHT22;4703;48.748;19.142;2023-12-20T12:20:04;2.50;99.90
9329;DHT22;4703;48.748;19.142;2023-12-20T12:22:32;2.60;99.90
9329;DHT22;4703;48.748;19.142;2023-12-20T12:25:09;5.20;99.90
9329;DHT22;4703;48.748;19.142;2023-12-20T12:27:41;4.30;99.90
9329;DHT22;4703;48.748;19.142;2023-12-20T12:30:10;2.80;99.90
9329;DHT22;4703;48.748;19.142;2023-12-20T12:32:40;2.90;99.90
9329;DHT22;4703;48.748;19.142;2023-12-20T12:35:08;3.50;99.90
9329;DHT22;4703;48.748;19.142;2023-12-20T12:37:40;3.00;99.90
9329;DHT22;4703;48.748;19.142;2023-12-20T12:40:13;3.20;99.90
9329;DHT22;4703;48.748;19.142;2023-12-20T12:42:42;3.30;99.90
9329;DHT22;4703;48.748;19.142;2023-12-20T12:45:11;3.30;99.90
9329;DHT22;4703;48.748;19.142;2023-12-20T12:47:39;3.40;99.90
9329;DHT22;4703;48.748;19.142;2023-12-20T12:50:07;3.40;99.90
9329;DHT22;4703;48.748;19.142;2023-12-20T12:52:34;3.50;99.90
9329;DHT22;4703;48.748;19.142;2023-12-20T12:55:02;4.20;99.90
9329;DHT22;4703;48.748;19.142;2023-12-20T12:57:32;3.60;99.90
9329;DHT22;4703;48.748;19.142;2023-12-20T13:00:00;3.60;99.90
9329;DHT22;4703;48.748;19.142;2023-12-20T13:02:27;3.70;99.90
9329;DHT22;4703;48.748;19.142;2023-12-20T13:04:54;3.70;99.90
9329;DHT22;4703;48.748;19.142;2023-12-20T13:07:21;3.80;99.90
9329;DHT22;4703;48.748;19.142;2023-12-20T13:09:48;3.80;99.90
9329;DHT22;4703;48.748;19.142;2023-12-20T13:12:15;3.80;99.90
9329;DHT22;4703;48.748;19.142;2023-12-20T13:14:42;3.80;99.90
9329;DHT22;4703;48.748;19.142;2023-12-20T13:17:09;3.90;99.90
9329;DHT22;4703;48.748;19.142;2023-12-20T13:19:36;3.90;99.90
9329;DHT22;4703;48.748;19.142;2023-12-20T13:22:05;3.90;99.90
9329;DHT22;4703;48.748;19.142;2023-12-20T13:24:32;3.90;99.90
9329;DHT22;4703;48.748;19.142;2023-12-20T13:26:59;4.00;99.90
9329;DHT22;4703;48.748;19.142;2023-12-20T13:29:26;5.40;99.90
9329;DHT22;4703;48.748;19.142;2023-12-20T13:31:55;3.90;99.90
9329;DHT22;4703;48.748;19.142;2023-12-20T13:34:23;4.00;99.90
9329;DHT22;4703;48.748;19.142;2023-12-20T13:36:51;3.90;99.90
9329;DHT22;4703;48.748;19.142;2023-12-20T13:39:18;4.10;99.90
9329;DHT22;4703;48.748;19.142;2023-12-20T13:41:45;4.00;99.90
9329;DHT22;4703;48.748;19.142;2023-12-20T13:44:12;4.00;99.90
9329;DHT22;4703;48.748;19.142;2023-12-20T13:46:41;4.00;99.90
9329;DHT22;4703;48.748;19.142;2023-12-20T13:49:08;5.20;99.90
9329;DHT22;4703;48.748;19.142;2023-12-20T13:51:35;4.10;99.90
9329;DHT22;4703;48.748;19.142;2023-12-20T13:54:02;4.20;99.90
9329;DHT22;4703;48.748;19.142;2023-12-20T13:56:29;4.10;99.90
9329;DHT22;4703;48.748;19.142;2023-12-20T13:58:57;4.10;99.90
9329;DHT22;4703;48.748;19.142;2023-12-20T14:01:24;5.80;99.90
9329;DHT22;4703;48.748;19.142;2023-12-20T14:03:51;4.20;99.90
9329;DHT22;4703;48.748;19.142;2023-12-20T14:06:18;4.20;99.90
9329;DHT22;4703;48.748;19.142;2023-12-20T14:08:45;4.20;99.90
9329;DHT22;4703;48.748;19.142;2023-12-20T14:11:12;4.20;99.90
9329;DHT22;4703;48.748;19.142;2023-12-20T14:13:42;4.20;99.90
9329;DHT22;4703;48.748;19.142;2023-12-20T14:16:10;4.20;99.90
9329;DHT22;4703;48.748;19.142;2023-12-20T14:18:38;5.30;99.90
9329;DHT22;4703;48.748;19.142;2023-12-20T14:21:09;4.10;99.90
9329;DHT22;4703;48.748;19.142;2023-12-20T14:23:36;4.90;99.90
9329;DHT22;4703;48.748;19.142;2023-12-20T14:26:03;4.00;99.90
9329;DHT22;4703;48.748;19.142;2023-12-20T14:28:31;3.90;99.90
9329;DHT22;4703;48.748;19.142;2023-12-20T14:30:58;3.90;99.90
9329;DHT22;4703;48.748;19.142;2023-12-20T14:33:25;5.60;99.90
9329;DHT22;4703;48.748;19.142;2023-12-20T14:35:52;3.80;99.90
9329;DHT22;4703;48.748;19.142;2023-12-20T14:38:20;3.80;99.90
9329;DHT22;4703;48.748;19.142;2023-12-20T14:40:47;5.80;99.90
9329;DHT22;4703;48.748;19.142;2023-12-20T14:43:14;3.70;99.90
9329;DHT22;4703;48.748;19.142;2023-12-20T14:45:40;3.70;99.90
9329;DHT22;4703;48.748;19.142;2023-12-20T14:48:08;3.70;99.90
9329;DHT22;4703;48.748;19.142;2023-12-20T14:50:35;3.60;99.90
9329;DHT22;4703;48.748;19.142;2023-12-20T14:53:03;3.70;99.90
9329;DHT22;4703;48.748;19.142;2023-12-20T14:55:30;3.70;99.90
9329;DHT22;4703;48.748;19.142;2023-12-20T14:57:57;3.80;99.90
9329;DHT22;4703;48.748;19.142;2023-12-20T15:00:24;3.80;99.90
9329;DHT22;4703;48.748;19.142;2023-12-20T15:02:51;3.90;99.90
9329;DHT22;4703;48.748;19.142;2023-12-20T15:05:21;3.90;99.90
9329;DHT22;4703;48.748;19.142;2023-12-20T15:07:48;3.90;99.90
9329;DHT22;4703;48.748;19.142;2023-12-20T15:10:15;5.80;99.90
9329;DHT22;4703;48.748;19.142;2023-12-20T15:12:44;3.90;99.90
9329;DHT22;4703;48.748;19.142;2023-12-20T15:15:11;4.00;99.90
9329;DHT22;4703;48.748;19.142;2023-12-20T15:17:38;5.60;99.90
9329;DHT22;4703;48.748;19.142;2023-12-20T15:20:06;4.10;99.90
9329;DHT22;4703;48.748;19.142;2023-12-20T15:22:36;4.10;99.90
9329;DHT22;4703;48.748;19.142;2023-12-20T15:25:04;4.10;99.90
9329;DHT22;4703;48.748;19.142;2023-12-20T15:27:35;4.20;99.90
9329;DHT22;4703;48.748;19.142;2023-12-20T15:30:05;4.20;99.90
9329;DHT22;4703;48.748;19.142;2023-12-20T15:32:33;4.20;99.90
9329;DHT22;4703;48.748;19.142;2023-12-20T15:35:03;4.20;99.90
9329;DHT22;4703;48.748;19.142;2023-12-20T15:37:31;4.20;99.90
9329;DHT22;4703;48.748;19.142;2023-12-20T15:39:58;4.10;99.90
9329;DHT22;4703;48.748;19.142;2023-12-20T15:42:30;6.10;99.90
9329;DHT22;4703;48.748;19.142;2023-12-20T15:44:58;4.10;99.90
9329;DHT22;4703;48.748;19.142;2023-12-20T15:47:25;4.00;99.90
9329;DHT22;4703;48.748;19.142;2023-12-20T15:49:52;4.00;99.90
9329;DHT22;4703;48.748;19.142;2023-12-20T15:52:20;4.00;99.90
9329;DHT22;4703;48.748;19.142;2023-12-20T15:54:47;6.30;99.90
9329;DHT22;4703;48.748;19.142;2023-12-20T15:57:15;3.90;99.90
9329;DHT22;4703;48.748;19.142;2023-12-20T15:59:42;3.90;99.90
9329;DHT22;4703;48.748;19.142;2023-12-20T16:02:09;3.80;99.90
9329;DHT22;4703;48.748;19.142;2023-12-20T16:04:36;3.80;99.90
9329;DHT22;4703;48.748;19.142;2023-12-20T16:07:03;3.70;99.90
9329;DHT22;4703;48.748;19.142;2023-12-20T16:09:31;3.70;99.90